Time;durP1;ratioP1;P1;durP2;ratioP2;P2;SDS_P1;SDS_P2;PMS_P1;PMS_P2;Temp;Humidity;BMP_temperature;BMP_pressure;BME280_temperature;BME280_humidity;BME280_pressure;Samples;Min_cycle;Max_cycle;Signal;HPM_P1;HPM_P2
2023/08/14 00:01:06;;;;;;;11.07;5.70;;;21.10;96.30;;;;;;7373262;19;20368;-75
2023/08/14 00:03:38;;;;;;;6.20;5.60;;;21.00;96.10;;;;;;7375993;19;20373;-76
2023/08/14 00:06:08;;;;;;;7.15;5.35;;;21.00;96.80;;;;;;7372721;19;20041;-76
2023/08/14 00:08:38;;;;;;;7.72;5.82;;;21.00;98.60;;;;;;7374247;19;20021;-76
2023/08/14 00:11:08;;;;;;;8.30;5.78;;;21.00;97.70;;;;;;7372599;19;20536;-76
2023/08/14 00:13:54;;;;;;;9.60;6.10;;;21.00;97.70;;;;;;7374875;19;20021;-74
2023/08/14 00:16:25;;;;;;;11.20;5.88;;;21.00;99.80;;;;;;6862567;19;2005083;-76
2023/08/14 00:18:57;;;;;;;10.35;6.45;;;21.00;98.50;;;;;;7376102;19;20014;-76
2023/08/14 00:21:28;;;;;;;6.47;5.63;;;21.00;97.80;;;;;;7375794;19;20026;-76
2023/08/14 00:23:58;;;;;;;5.70;4.90;;;21.00;98.10;;;;;;7376367;19;20018;-75
2023/08/14 00:26:28;;;;;;;7.63;4.80;;;20.90;96.00;;;;;;7377073;19;20566;-75
2023/08/14 00:28:58;;;;;;;6.32;4.70;;;20.90;96.60;;;;;;7375909;19;20006;-75
2023/08/14 00:31:28;;;;;;;8.70;4.88;;;20.70;97.10;;;;;;7379855;19;20011;-76
2023/08/14 00:34:00;;;;;;;6.18;5.05;;;20.70;99.90;;;;;;7375639;19;20015;-76
2023/08/14 00:36:30;;;;;;;8.05;5.07;;;20.80;99.90;;;;;;7376436;19;20032;-76
2023/08/14 00:39:00;;;;;;;6.05;4.88;;;20.70;99.90;;;;;;7373991;19;20015;-75
2023/08/14 00:41:30;;;;;;;6.90;4.70;;;20.70;99.90;;;;;;7373416;19;20006;-76
2023/08/14 00:44:00;;;;;;;7.97;5.20;;;20.80;99.90;;;;;;7375150;19;20025;-76
2023/08/14 00:46:30;;;;;;;9.98;5.63;;;20.80;99.90;;;;;;7374038;19;20475;-76
2023/08/14 00:49:04;;;;;;;7.13;5.43;;;20.80;99.90;;;;;;7376065;19;20451;-77
2023/08/14 00:51:34;;;;;;;8.63;5.93;;;20.90;99.90;;;;;;7375154;19;20415;-77
2023/08/14 00:54:04;;;;;;;7.72;5.97;;;21.00;99.90;;;;;;7372959;19;20014;-77
2023/08/14 00:56:35;;;;;;;7.72;6.32;;;21.00;99.90;;;;;;7377179;19;20011;-77
2023/08/14 00:59:05;;;;;;;9.30;6.03;;;21.10;99.90;;;;;;7394809;19;20007;-76
2023/08/14 01:01:35;;;;;;;10.40;6.90;;;21.10;99.90;;;;;;7412154;19;20011;-76
2023/08/14 01:04:08;;;;;;;9.57;7.05;;;21.20;97.40;;;;;;7409780;19;20019;-76
2023/08/14 01:06:38;;;;;;;11.40;6.25;;;21.20;95.00;;;;;;7382032;19;20011;-75
2023/08/14 01:09:09;;;;;;;5.25;4.80;;;21.20;94.00;;;;;;7372713;19;20014;-77
2023/08/14 01:11:45;;;;;;;7.80;4.85;;;21.00;90.60;;;;;;7375539;19;20027;-75
2023/08/14 01:14:21;;;;;;;9.70;5.50;;;20.90;94.10;;;;;;7378373;19;20340;-77
2023/08/14 01:16:56;;;;;;;9.55;5.18;;;20.80;97.00;;;;;;6868185;19;2004796;-77
2023/08/14 01:19:32;;;;;;;6.13;4.80;;;20.90;99.90;;;;;;7379709;19;20384;-75
2023/08/14 01:22:06;;;;;;;6.57;5.07;;;20.80;99.90;;;;;;7379558;19;23601;-76
2023/08/14 01:24:48;;;;;;;5.57;4.93;;;20.80;99.90;;;;;;7378576;19;20011;-77
2023/08/14 01:27:21;;;;;;;6.32;5.35;;;20.70;99.90;;;;;;7379391;19;20018;-76
2023/08/14 01:29:58;;;;;;;9.80;6.00;;;20.70;99.90;;;;;;7377260;19;20015;-76
2023/08/14 01:32:29;;;;;;;6.05;5.45;;;20.70;99.90;;;;;;7378981;19;20502;-76
2023/08/14 01:34:59;;;;;;;6.65;5.60;;;20.70;99.90;;;;;;7377102;19;20010;-75
2023/08/14 01:37:35;;;;;;;7.13;5.78;;;20.70;99.90;;;;;;7379238;19;20072;-77
2023/08/14 01:40:12;;;;;;;6.70;5.15;;;20.70;99.90;;;;;;7378372;19;20015;-76
2023/08/14 01:42:46;;;;;;;8.75;5.55;;;20.80;99.90;;;;;;7377495;19;20010;-75
2023/08/14 01:45:19;;;;;;;;;;;20.80;99.90;;;;;;7374411;19;20011;-76
2023/08/14 01:47:51;;;;;;;8.13;6.32;;;20.90;99.90;;;;;;7379468;19;19922;-77
2023/08/14 01:50:22;;;;;;;10.00;7.13;;;20.90;99.90;;;;;;7374851;19;20014;-76
2023/08/14 01:52:52;;;;;;;12.57;7.35;;;21.00;99.90;;;;;;7377093;19;20554;-76
2023/08/14 01:55:22;;;;;;;11.00;8.63;;;21.00;99.90;;;;;;7376612;19;20387;-76
2023/08/14 01:57:56;;;;;;;11.70;7.72;;;21.10;99.80;;;;;;7375759;19;20023;-76
2023/08/14 02:00:26;;;;;;;11.60;7.57;;;21.10;99.90;;;;;;7371725;19;20010;-77
2023/08/14 02:02:57;;;;;;;9.95;7.72;;;21.10;99.90;;;;;;7377438;19;20007;-75
2023/08/14 02:05:27;;;;;;;10.30;7.40;;;21.00;99.90;;;;;;7375736;19;20010;-75
2023/08/14 02:07:57;;;;;;;9.52;7.28;;;21.10;99.90;;;;;;7376217;19;20018;-75
2023/08/14 02:10:27;;;;;;;11.38;7.22;;;21.10;99.90;;;;;;7377983;19;20072;-75
2023/08/14 02:13:00;;;;;;;10.73;7.65;;;21.10;99.90;;;;;;7378123;19;20031;-76
2023/08/14 02:15:30;;;;;;;11.30;7.75;;;21.10;99.90;;;;;;7376028;19;20035;-76
2023/08/14 02:18:00;;;;;;;9.43;7.43;;;21.10;99.90;;;;;;7375958;19;20438;-76
2023/08/14 02:20:30;;;;;;;8.70;7.47;;;21.00;99.90;;;;;;7376983;19;20014;-74
2023/08/14 02:23:00;;;;;;;13.02;8.40;;;21.00;99.90;;;;;;7378323;19;20071;-74
2023/08/14 02:25:30;;;;;;;9.93;8.10;;;21.10;99.90;;;;;;7375997;19;20013;-74
2023/08/14 02:28:02;;;;;;;9.50;7.70;;;21.00;99.90;;;;;;7376500;19;20049;-75
2023/08/14 02:30:32;;;;;;;10.23;7.68;;;21.00;99.90;;;;;;7375948;19;20035;-73
2023/08/14 02:33:02;;;;;;;12.63;8.93;;;21.00;99.90;;;;;;7376849;19;20007;-73
2023/08/14 02:35:32;;;;;;;11.07;8.38;;;21.00;99.90;;;;;;7375565;19;20014;-73
2023/08/14 02:38:03;;;;;;;10.68;9.15;;;20.90;99.90;;;;;;7376025;19;20015;-74
2023/08/14 02:40:32;;;;;;;14.82;9.82;;;20.90;99.90;;;;;;7376117;19;20023;-74
2023/08/14 02:43:05;;;;;;;13.63;9.30;;;20.90;99.90;;;;;;7375790;19;20908;-73
2023/08/14 02:45:35;;;;;;;15.68;11.05;;;20.90;99.90;;;;;;7376723;19;20014;-74
2023/08/14 02:48:07;;;;;;;20.65;10.75;;;20.90;99.90;;;;;;7375747;19;20815;-74
2023/08/14 02:50:37;;;;;;;16.17;9.55;;;20.80;99.90;;;;;;7375370;19;20662;-74
2023/08/14 02:53:07;;;;;;;15.38;9.48;;;20.80;99.90;;;;;;7374854;19;20011;-74
2023/08/14 02:55:37;;;;;;;11.82;8.60;;;20.70;99.90;;;;;;7374780;19;20019;-75
2023/08/14 02:58:09;;;;;;;12.48;8.65;;;20.70;99.90;;;;;;7377400;19;20014;-75
2023/08/14 03:00:39;;;;;;;9.02;7.50;;;20.70;99.90;;;;;;7375290;19;20035;-74
2023/08/14 03:03:09;;;;;;;9.95;7.55;;;20.60;99.90;;;;;;7375123;19;20455;-73
2023/08/14 03:05:39;;;;;;;9.82;7.20;;;20.60;99.90;;;;;;7376296;19;20014;-74
2023/08/14 03:08:09;;;;;;;10.77;6.35;;;20.60;99.90;;;;;;7375449;19;20019;-73
2023/08/14 03:10:39;;;;;;;7.10;5.63;;;20.50;99.90;;;;;;7377325;19;20029;-74
2023/08/14 03:13:12;;;;;;;6.50;4.78;;;20.40;99.90;;;;;;7372773;19;20022;-73
2023/08/14 03:15:41;;;;;;;6.35;4.97;;;20.40;99.90;;;;;;7375020;19;20400;-73
2023/08/14 03:18:11;;;;;;;6.43;4.72;;;20.40;99.90;;;;;;7372807;19;20006;-73
2023/08/14 03:20:41;;;;;;;9.07;4.82;;;20.30;99.90;;;;;;7375286;19;20027;-74
2023/08/14 03:23:11;;;;;;;8.07;4.50;;;20.10;99.90;;;;;;7374371;19;20352;-74
2023/08/14 03:25:41;;;;;;;6.43;4.20;;;20.10;99.90;;;;;;7374053;19;20018;-74
2023/08/14 03:28:14;;;;;;;6.03;4.68;;;20.00;99.90;;;;;;7371862;19;20010;-74
2023/08/14 03:30:45;;;;;;;9.30;5.00;;;20.00;99.90;;;;;;7377455;19;20007;-74
2023/08/14 03:33:15;;;;;;;7.40;4.95;;;20.00;99.90;;;;;;7377291;19;20056;-75
2023/08/14 03:35:45;;;;;;;5.07;4.57;;;20.00;99.90;;;;;;7376101;19;20712;-74
2023/08/14 03:38:14;;;;;;;6.90;5.22;;;19.90;99.90;;;;;;7373401;19;20019;-74
2023/08/14 03:40:45;;;;;;;8.38;5.70;;;20.10;99.90;;;;;;7372904;19;20422;-74
2023/08/14 03:43:18;;;;;;;10.35;4.97;;;19.90;99.90;;;;;;7371512;19;20135;-74
2023/08/14 03:45:48;;;;;;;8.43;5.63;;;19.90;99.90;;;;;;7369471;19;20545;-74
2023/08/14 03:48:18;;;;;;;9.40;5.25;;;19.80;99.90;;;;;;7374428;19;20010;-74
2023/08/14 03:50:49;;;;;;;8.10;5.32;;;19.80;99.90;;;;;;7370725;19;20010;-74
2023/08/14 03:53:19;;;;;;;9.10;5.30;;;19.80;99.90;;;;;;7372158;19;20008;-74
2023/08/14 03:55:49;;;;;;;8.00;5.80;;;19.80;99.90;;;;;;7372134;19;20031;-74
2023/08/14 03:58:21;;;;;;;10.73;6.63;;;19.80;99.90;;;;;;7373154;19;20049;-74
2023/08/14 04:00:51;;;;;;;8.55;5.53;;;19.70;99.90;;;;;;7373041;19;20031;-75
2023/08/14 04:03:21;;;;;;;7.38;6.03;;;19.60;99.90;;;;;;7371841;19;20034;-75
2023/08/14 04:05:57;;;;;;;9.82;5.35;;;19.60;99.90;;;;;;7373899;19;20446;-74
2023/08/14 04:08:27;;;;;;;11.18;6.07;;;19.60;99.90;;;;;;7370553;19;20022;-75
2023/08/14 04:10:57;;;;;;;7.55;5.20;;;19.60;99.90;;;;;;7373898;19;20030;-74
2023/08/14 04:13:30;;;;;;;6.85;5.70;;;19.60;99.90;;;;;;7373487;19;20015;-74
2023/08/14 04:16:03;;;;;;;5.95;5.10;;;19.70;99.90;;;;;;7373060;19;20015;-74
2023/08/14 04:18:33;;;;;;;8.25;5.45;;;19.60;99.90;;;;;;7373001;19;20538;-74
2023/08/14 04:21:03;;;;;;;9.80;5.93;;;19.60;99.90;;;;;;7373428;19;20014;-74
2023/08/14 04:23:33;;;;;;;11.63;5.72;;;19.50;99.90;;;;;;7372609;19;20107;-74
2023/08/14 04:26:03;;;;;;;7.50;5.20;;;19.50;99.90;;;;;;7375049;19;20121;-74
2023/08/14 04:28:36;;;;;;;9.38;5.90;;;19.50;99.90;;;;;;7373891;19;20015;-74
2023/08/14 04:31:06;;;;;;;6.60;4.90;;;19.60;99.90;;;;;;7373178;19;20257;-75
2023/08/14 04:33:36;;;;;;;7.13;5.22;;;19.60;99.90;;;;;;7370478;19;20090;-74
2023/08/14 04:36:07;;;;;;;7.32;5.20;;;19.60;99.90;;;;;;7394137;19;20003;-75
2023/08/14 04:38:37;;;;;;;7.22;5.68;;;19.50;99.90;;;;;;7403577;19;20020;-75
2023/08/14 04:41:07;;;;;;;12.07;5.50;;;19.60;99.90;;;;;;7398021;19;20046;-74
2023/08/14 04:43:40;;;;;;;7.93;5.30;;;19.60;99.90;;;;;;7386524;19;20010;-73
2023/08/14 04:46:12;;;;;;;5.97;5.38;;;19.60;99.90;;;;;;7385584;19;20030;-75
2023/08/14 04:48:42;;;;;;;9.35;6.10;;;19.60;99.90;;;;;;7380790;19;20022;-75
2023/08/14 04:51:12;;;;;;;7.97;5.82;;;19.60;99.90;;;;;;7378937;19;20039;-75
2023/08/14 04:53:42;;;;;;;9.02;5.57;;;19.70;99.90;;;;;;7379375;19;20081;-74
2023/08/14 04:56:12;;;;;;;5.97;5.40;;;19.70;99.90;;;;;;7378558;19;20429;-76
2023/08/14 04:58:46;;;;;;;7.40;5.22;;;19.80;99.90;;;;;;7379566;19;20014;-76
2023/08/14 05:01:15;;;;;;;5.50;5.00;;;19.90;99.90;;;;;;7379043;19;20127;-76
2023/08/14 05:03:45;;;;;;;9.20;5.40;;;20.00;99.90;;;;;;7378645;19;20030;-75
2023/08/14 05:06:15;;;;;;;5.75;4.45;;;20.00;99.90;;;;;;7378326;19;20023;-75
2023/08/14 05:08:45;;;;;;;5.70;4.80;;;20.10;99.90;;;;;;7380016;19;20007;-75
2023/08/14 05:11:15;;;;;;;7.03;4.50;;;20.20;99.90;;;;;;7379964;19;20014;-75
2023/08/14 05:13:48;;;;;;;7.40;4.47;;;21.20;46.40;;;;;;7377347;19;20015;-75
2023/08/14 05:16:19;;;;;;;5.25;4.05;;;22.70;5.90;;;;;;7378252;19;20010;-75
2023/08/14 05:18:49;;;;;;;5.95;3.95;;;21.70;4.40;;;;;;7375848;19;20342;-75
2023/08/14 05:21:19;;;;;;;5.05;4.00;;;20.90;24.10;;;;;;7375908;19;20014;-75
2023/08/14 05:23:49;;;;;;;6.53;3.97;;;21.00;41.80;;;;;;7376780;19;20526;-75
2023/08/14 05:26:19;;;;;;;6.15;3.67;;;20.80;42.80;;;;;;7373866;19;20389;-75
2023/08/14 05:28:52;;;;;;;7.80;4.25;;;20.80;47.80;;;;;;7375992;19;20015;-76
2023/08/14 05:31:22;;;;;;;6.72;3.78;;;22.80;1.00;;;;;;7376465;19;20007;-75
2023/08/14 05:33:52;;;;;;;6.97;3.75;;;24.00;1.00;;;;;;7376533;19;20002;-75
2023/08/14 05:36:22;;;;;;;6.40;3.40;;;25.50;1.00;;;;;;7376664;19;20425;-75
2023/08/14 05:38:52;;;;;;;8.68;3.30;;;26.00;1.00;;;;;;7375223;19;20019;-76
2023/08/14 05:41:22;;;;;;;4.25;3.30;;;23.60;1.00;;;;;;7376189;19;20013;-75
2023/08/14 05:43:54;;;;;;;6.38;3.67;;;22.50;1.00;;;;;;7376557;19;20019;-75
2023/08/14 05:46:24;;;;;;;6.13;3.72;;;22.00;1.00;;;;;;7381677;19;20086;-75
2023/08/14 05:48:54;;;;;;;11.27;4.50;;;21.50;5.30;;;;;;7380861;19;20021;-75
2023/08/14 05:51:24;;;;;;;5.78;3.90;;;21.20;13.50;;;;;;7379017;19;20010;-74
2023/08/14 05:53:54;;;;;;;4.70;3.85;;;21.30;17.80;;;;;;7382967;19;20018;-75
2023/08/14 05:56:24;;;;;;;4.95;4.10;;;21.20;18.40;;;;;;7382589;19;20495;-75
2023/08/14 05:58:58;;;;;;;6.07;4.32;;;21.10;17.60;;;;;;7376177;19;20014;-75
2023/08/14 06:01:29;;;;;;;7.88;3.97;;;21.00;23.20;;;;;;7383153;19;20081;-74
2023/08/14 06:03:59;;;;;;;5.82;4.00;;;21.00;24.60;;;;;;7378141;19;20536;-74
2023/08/14 06:06:29;;;;;;;5.82;3.60;;;21.00;27.60;;;;;;7378121;19;20528;-76
2023/08/14 06:08:59;;;;;;;6.15;3.42;;;21.00;26.20;;;;;;7373805;19;20011;-74
2023/08/14 06:11:30;;;;;;;6.40;3.63;;;21.00;23.90;;;;;;7375468;19;20018;-76
2023/08/14 06:14:02;;;;;;;6.10;3.53;;;20.90;28.60;;;;;;7376920;19;20029;-74
2023/08/14 06:16:32;;;;;;;6.53;4.00;;;21.00;31.70;;;;;;7376755;19;20010;-75
2023/08/14 06:19:02;;;;;;;4.28;3.72;;;21.10;23.10;;;;;;7374464;19;20090;-76
2023/08/14 06:21:32;;;;;;;4.90;3.70;;;21.20;26.60;;;;;;7375723;19;20021;-75
2023/08/14 06:24:02;;;;;;;4.38;3.38;;;21.10;26.00;;;;;;7378809;19;20018;-74
2023/08/14 06:26:32;;;;;;;6.88;3.58;;;21.10;26.10;;;;;;7375174;19;20014;-74
2023/08/14 06:29:05;;;;;;;9.35;4.38;;;21.20;31.80;;;;;;7376671;19;20079;-75
2023/08/14 06:31:35;;;;;;;7.53;3.58;;;21.20;21.60;;;;;;7376480;19;20383;-75
2023/08/14 06:34:05;;;;;;;5.05;3.50;;;21.00;18.30;;;;;;7377805;19;20031;-74
2023/08/14 06:36:36;;;;;;;5.88;3.90;;;21.10;19.40;;;;;;7376458;19;20129;-74
2023/08/14 06:39:06;;;;;;;6.53;3.55;;;21.10;21.00;;;;;;7376359;19;20027;-74
2023/08/14 06:41:36;;;;;;;4.88;3.53;;;21.10;21.30;;;;;;7375781;19;20019;-75
2023/08/14 06:44:10;;;;;;;5.28;3.58;;;21.20;24.10;;;;;;7375225;19;20006;-74
2023/08/14 06:46:41;;;;;;;4.97;3.72;;;21.20;30.20;;;;;;7368789;19;20022;-75
2023/08/14 06:49:12;;;;;;;5.75;3.90;;;21.10;27.30;;;;;;7375133;19;20014;-75
2023/08/14 06:51:41;;;;;;;6.20;3.70;;;21.10;23.20;;;;;;7375374;19;20198;-75
2023/08/14 06:54:11;;;;;;;8.48;4.03;;;21.10;19.60;;;;;;7376091;19;20010;-75
2023/08/14 06:56:41;;;;;;;10.13;4.07;;;21.30;21.40;;;;;;7374336;19;20018;-76
2023/08/14 06:59:14;;;;;;;5.20;4.05;;;21.20;25.40;;;;;;7374553;19;20006;-74
2023/08/14 07:01:44;;;;;;;8.23;4.30;;;21.60;28.20;;;;;;7373551;19;20011;-75
2023/08/14 07:04:14;;;;;;;6.05;4.13;;;22.00;16.20;;;;;;7375291;19;20032;-74
2023/08/14 07:06:44;;;;;;;5.05;3.70;;;22.40;8.80;;;;;;7373695;19;20014;-75
2023/08/14 07:09:16;;;;;;;6.63;3.20;;;22.50;1.50;;;;;;7373735;19;20011;-75
2023/08/14 07:11:46;;;;;;;4.95;3.45;;;22.60;1.00;;;;;;7373196;19;20409;-75
2023/08/14 07:14:19;;;;;;;4.70;3.35;;;23.00;1.00;;;;;;7373541;19;20041;-75
2023/08/14 07:16:49;;;;;;;5.45;3.50;;;23.30;1.00;;;;;;7373625;19;20047;-74
2023/08/14 07:19:19;;;;;;;4.85;3.17;;;23.00;1.00;;;;;;7375078;19;20006;-75
2023/08/14 07:21:49;;;;;;;4.45;3.20;;;23.10;1.00;;;;;;7374507;19;20471;-75
2023/08/14 07:24:19;;;;;;;4.07;3.20;;;23.50;1.00;;;;;;7374090;19;20007;-75
2023/08/14 07:26:49;;;;;;;5.03;3.28;;;23.70;1.00;;;;;;7376034;19;20014;-76
2023/08/14 07:29:21;;;;;;;4.28;2.97;;;23.80;1.00;;;;;;7377224;19;20007;-73
2023/08/14 07:31:51;;;;;;;6.85;3.10;;;24.10;1.00;;;;;;7375719;19;20010;-75
2023/08/14 07:34:21;;;;;;;4.35;3.05;;;24.10;1.00;;;;;;7381635;19;20027;-75
2023/08/14 07:36:51;;;;;;;6.57;2.95;;;24.50;1.00;;;;;;7380880;19;20061;-75
2023/08/14 07:39:24;;;;;;;3.70;3.20;;;24.80;1.00;;;;;;7378800;19;20011;-76
2023/08/14 07:41:54;;;;;;;3.55;3.15;;;24.30;1.00;;;;;;7382943;19;20546;-75
2023/08/14 07:44:27;;;;;;;4.55;3.17;;;24.60;1.00;;;;;;7384378;19;20006;-75
2023/08/14 07:46:57;;;;;;;4.38;2.75;;;24.40;1.00;;;;;;7374273;19;20086;-74
2023/08/14 07:49:27;;;;;;;5.32;3.05;;;24.50;1.00;;;;;;7375550;19;20015;-74
2023/08/14 07:51:57;;;;;;;4.22;3.10;;;24.50;1.00;;;;;;7380314;19;20419;-74
2023/08/14 07:54:27;;;;;;;6.10;4.47;;;24.60;1.00;;;;;;7377577;19;20026;-74
2023/08/14 07:56:57;;;;;;;3.70;3.10;;;24.70;1.00;;;;;;7377068;19;20050;-75
2023/08/14 07:59:29;;;;;;;4.30;3.08;;;24.50;1.00;;;;;;7375684;19;20035;-75
2023/08/14 08:01:59;;;;;;;3.38;2.63;;;24.50;1.00;;;;;;7377902;19;20036;-75
2023/08/14 08:04:36;;;;;;;3.17;2.63;;;24.80;1.00;;;;;;7378171;19;20449;-75
2023/08/14 08:07:10;;;;;;;7.95;2.60;;;24.90;1.00;;;;;;7374033;19;20096;-75
2023/08/14 08:09:40;;;;;;;5.03;2.70;;;25.00;1.00;;;;;;7373515;19;20021;-75
2023/08/14 08:12:10;;;;;;;3.97;2.92;;;25.00;1.00;;;;;;7382481;19;20766;-76
2023/08/14 08:14:43;;;;;;;7.30;2.75;;;24.90;1.00;;;;;;7406078;19;20119;-75
2023/08/14 08:17:13;;;;;;;4.47;2.80;;;25.10;1.00;;;;;;7406531;19;20031;-76
2023/08/14 08:19:44;;;;;;;3.35;2.17;;;25.20;1.00;;;;;;7387419;19;20078;-75
2023/08/14 08:22:14;;;;;;;3.70;2.75;;;25.20;1.00;;;;;;7381430;19;20014;-76
2023/08/14 08:24:44;;;;;;;3.70;2.10;;;25.30;1.00;;;;;;7379768;19;20006;-75
2023/08/14 08:27:14;;;;;;;4.40;2.53;;;25.40;1.00;;;;;;7380286;19;20027;-75
2023/08/14 08:29:46;;;;;;;4.68;3.03;;;25.60;1.00;;;;;;7378806;19;20018;-74
2023/08/14 08:32:16;;;;;;;5.97;2.85;;;26.00;1.00;;;;;;7379609;19;20027;-74
2023/08/14 08:34:47;;;;;;;6.43;2.53;;;26.00;1.00;;;;;;7380303;19;20010;-75
2023/08/14 08:37:19;;;;;;;2.58;2.22;;;25.90;1.00;;;;;;7379145;19;20513;-75
2023/08/14 08:39:49;;;;;;;6.35;4.10;;;26.00;1.00;;;;;;7378598;19;20054;-75
2023/08/14 08:42:22;;;;;;;3.57;2.43;;;26.10;1.00;;;;;;7379345;19;20025;-74
2023/08/14 08:44:57;;;;;;;5.28;2.50;;;26.30;1.00;;;;;;7380537;19;20010;-76
2023/08/14 08:47:31;;;;;;;3.22;2.50;;;26.20;1.00;;;;;;7380070;19;20337;-74
2023/08/14 08:50:05;;;;;;;3.60;2.05;;;26.30;1.00;;;;;;7378996;19;20135;-75
2023/08/14 08:52:37;;;;;;;6.25;2.60;;;26.60;1.00;;;;;;7378474;19;20019;-76
2023/08/14 08:55:09;;;;;;;3.85;2.05;;;26.60;1.00;;;;;;7380414;19;20010;-75
2023/08/14 08:57:42;;;;;;;3.72;2.35;;;26.60;1.00;;;;;;7379284;19;20006;-77
2023/08/14 09:00:16;;;;;;;3.17;2.53;;;26.40;1.00;;;;;;7375170;19;20038;-76
2023/08/14 09:02:48;;;;;;;4.85;2.63;;;26.70;1.00;;;;;;7379081;19;20011;-75
2023/08/14 09:05:21;;;;;;;3.88;2.50;;;26.80;1.00;;;;;;7379087;19;20025;-76
2023/08/14 09:07:51;;;;;;;3.13;2.00;;;27.00;1.00;;;;;;7378030;19;20373;-76
2023/08/14 09:10:21;;;;;;;2.33;1.90;;;27.10;1.00;;;;;;7378044;19;20010;-75
2023/08/14 09:12:51;;;;;;;2.33;1.90;;;27.00;1.00;;;;;;7377771;19;20006;-76
2023/08/14 09:15:25;;;;;;;3.50;2.00;;;27.10;1.00;;;;;;7378182;19;20401;-77
2023/08/14 09:17:56;;;;;;;;;;;26.90;1.00;;;;;;7378386;19;20014;-75
2023/08/14 09:20:26;;;;;;;3.55;1.90;;;27.10;1.00;;;;;;7375814;19;20491;-75
2023/08/14 09:23:00;;;;;;;4.57;2.35;;;27.20;1.00;;;;;;7377764;19;20015;-75
2023/08/14 09:25:30;;;;;;;3.47;2.40;;;27.10;1.00;;;;;;7377133;19;20083;-74
2023/08/14 09:28:01;;;;;;;3.80;2.35;;;27.20;1.00;;;;;;7379125;19;20024;-75
2023/08/14 09:30:33;;;;;;;4.32;2.10;;;27.10;1.00;;;;;;7379297;19;20612;-75
2023/08/14 09:33:03;;;;;;;3.88;2.40;;;27.50;1.00;;;;;;7374621;19;20010;-75
2023/08/14 09:35:33;;;;;;;7.47;2.28;;;27.60;1.00;;;;;;7377190;19;20041;-74
2023/08/14 09:38:03;;;;;;;2.60;2.30;;;27.20;1.00;;;;;;7376240;19;20017;-76
2023/08/14 09:40:34;;;;;;;4.68;2.13;;;27.30;1.00;;;;;;7376735;19;20035;-73
2023/08/14 09:43:05;;;;;;;4.80;2.55;;;27.40;1.00;;;;;;7377366;19;20024;-75
2023/08/14 09:45:39;;;;;;;3.53;2.47;;;27.70;1.00;;;;;;7377030;19;20023;-76
2023/08/14 09:48:09;;;;;;;7.40;3.05;;;27.80;1.00;;;;;;7377227;19;20136;-76
2023/08/14 09:50:39;;;;;;;4.00;2.70;;;28.30;1.00;;;;;;7375038;19;20007;-75
2023/08/14 09:53:09;;;;;;;2.90;2.60;;;28.40;1.00;;;;;;7374417;19;20015;-75
2023/08/14 09:55:40;;;;;;;3.30;2.53;;;28.10;1.00;;;;;;7376786;19;20027;-75
2023/08/14 09:58:10;;;;;;;4.68;2.88;;;28.00;1.00;;;;;;7378260;19;20007;-74
2023/08/14 10:00:43;;;;;;;2.97;2.33;;;28.30;1.00;;;;;;7375685;19;20010;-75
2023/08/14 10:03:14;;;;;;;4.32;2.92;;;28.60;1.00;;;;;;7376433;19;20038;-74
2023/08/14 10:05:44;;;;;;;3.72;2.75;;;28.30;1.00;;;;;;7375315;19;20021;-75
2023/08/14 10:08:16;;;;;;;4.90;2.67;;;28.40;1.00;;;;;;7374495;19;20014;-76
2023/08/14 10:10:46;;;;;;;4.03;2.50;;;28.50;1.00;;;;;;7375875;19;20482;-76
2023/08/14 10:13:41;;;;;;;3.53;2.70;;;28.50;1.00;;;;;;7367803;19;20019;-74
2023/08/14 10:16:19;;;;;;;5.13;2.72;;;28.20;1.00;;;;;;7376719;19;20471;-76
2023/08/14 10:18:52;;;;;;;3.40;2.80;;;28.50;1.00;;;;;;7376079;19;20010;-75
2023/08/14 10:21:23;;;;;;;3.95;2.70;;;28.60;1.00;;;;;;7375805;19;20014;-76
2023/08/14 10:23:54;;;;;;;5.22;3.00;;;28.70;1.00;;;;;;7375303;19;20010;-75
2023/08/14 10:26:25;;;;;;;5.15;3.20;;;28.30;1.00;;;;;;7375608;19;20050;-76
2023/08/14 10:28:59;;;;;;;2.75;2.53;;;28.50;1.00;;;;;;7377134;19;20463;-74
2023/08/14 10:31:33;;;;;;;4.80;2.97;;;28.80;1.00;;;;;;7375776;19;20022;-76
2023/08/14 10:34:03;;;;;;;;;;;28.80;1.00;;;;;;7375267;19;20015;-76
2023/08/14 10:36:33;;;;;;;3.20;2.85;;;29.10;1.00;;;;;;7377111;19;19914;-75
2023/08/14 10:39:09;;;;;;;5.28;2.88;;;29.10;1.00;;;;;;7376132;19;20035;-76
2023/08/14 10:41:40;;;;;;;3.22;2.75;;;29.00;1.00;;;;;;7375588;19;20010;-77
2023/08/14 10:44:11;;;;;;;3.92;2.60;;;29.20;1.00;;;;;;7373461;19;20017;-76
2023/08/14 10:46:45;;;;;;;4.90;2.80;;;29.30;1.00;;;;;;7376789;19;20041;-76
2023/08/14 10:49:16;;;;;;;6.13;3.10;;;29.10;1.00;;;;;;7379083;19;20017;-76
2023/08/14 10:51:47;;;;;;;3.85;3.05;;;29.10;1.00;;;;;;7374156;19;20027;-76
2023/08/14 10:54:18;;;;;;;3.50;2.90;;;29.00;1.00;;;;;;7374610;19;20585;-76
2023/08/14 10:56:50;;;;;;;4.63;2.80;;;29.10;1.00;;;;;;7362948;19;20022;-76
2023/08/14 10:59:26;;;;;;;4.18;2.90;;;29.20;1.00;;;;;;7374538;19;20078;-76
2023/08/14 11:02:16;;;;;;;4.13;2.80;;;29.30;1.00;;;;;;7374949;19;20014;-76
2023/08/14 11:05:02;;;;;;;2.90;2.55;;;29.30;1.00;;;;;;7371735;19;20060;-76
2023/08/14 11:07:34;;;;;;;4.60;3.00;;;29.30;1.00;;;;;;7368667;19;20078;-76
2023/08/14 11:10:06;;;;;;;6.47;3.35;;;29.00;1.00;;;;;;7373467;19;20811;-75
2023/08/14 11:12:38;;;;;;;3.10;2.63;;;28.90;1.00;;;;;;7372886;19;20482;-76
2023/08/14 11:15:09;;;;;;;3.72;2.63;;;29.50;1.00;;;;;;7372005;19;20487;-75
2023/08/14 11:17:42;;;;;;;5.43;2.97;;;29.60;1.00;;;;;;7373555;19;20010;-75
2023/08/14 11:20:13;;;;;;;3.55;3.15;;;30.00;1.00;;;;;;7374898;19;20006;-76
2023/08/14 11:22:46;;;;;;;4.00;3.60;;;29.90;1.00;;;;;;7372965;19;20029;-76
2023/08/14 11:25:17;;;;;;;4.65;2.83;;;30.00;1.00;;;;;;7370118;19;20010;-77
2023/08/14 11:27:51;;;;;;;4.90;2.78;;;30.20;1.00;;;;;;7372037;19;20480;-76
2023/08/14 11:30:22;;;;;;;2.97;2.70;;;30.60;1.00;;;;;;7372410;19;20582;-76
2023/08/14 11:32:57;;;;;;;;;;;30.20;1.00;;;;;;7376664;19;20006;-75
2023/08/14 11:35:29;;;;;;;3.75;2.88;;;30.20;1.00;;;;;;7373268;19;20521;-75
2023/08/14 11:37:59;;;;;;;3.85;3.10;;;30.20;1.00;;;;;;7373209;19;20031;-76
2023/08/14 11:40:29;;;;;;;4.15;3.10;;;30.50;1.00;;;;;;7375374;19;20022;-76
2023/08/14 11:42:59;;;;;;;6.40;3.13;;;29.60;1.00;;;;;;7373754;19;20006;-75
2023/08/14 11:45:29;;;;;;;3.30;3.00;;;29.30;1.00;;;;;;7372456;19;20014;-75
2023/08/14 11:48:03;;;;;;;4.82;3.13;;;29.50;1.00;;;;;;7372308;19;20194;-75
2023/08/14 11:50:34;;;;;;;5.55;2.80;;;29.90;1.00;;;;;;7372063;19;20093;-75
2023/08/14 11:53:04;;;;;;;4.63;3.10;;;29.90;1.00;;;;;;7390090;19;20003;-75
2023/08/14 11:55:34;;;;;;;4.22;2.90;;;30.20;1.00;;;;;;7404740;19;20024;-76
2023/08/14 11:58:04;;;;;;;3.35;2.97;;;29.90;1.00;;;;;;7405354;19;20007;-75
2023/08/14 12:00:34;;;;;;;7.10;3.13;;;29.70;1.00;;;;;;7383757;19;20010;-74
2023/08/14 12:03:10;;;;;;;3.10;2.80;;;29.70;1.00;;;;;;7371518;19;20143;-76
2023/08/14 12:05:40;;;;;;;9.48;2.92;;;29.60;1.00;;;;;;7373296;19;22210;-76
2023/08/14 12:08:12;;;;;;;3.88;3.10;;;29.30;1.00;;;;;;7373737;19;20094;-76
2023/08/14 12:10:43;;;;;;;3.45;3.08;;;29.00;1.00;;;;;;7372703;19;20051;-76
2023/08/14 12:13:13;;;;;;;4.00;2.85;;;29.00;1.00;;;;;;7372616;19;20027;-76
2023/08/14 12:15:43;;;;;;;4.70;3.00;;;28.80;1.00;;;;;;7367932;19;20010;-76
2023/08/14 12:18:22;;;;;;;4.60;3.00;;;28.80;1.00;;;;;;7372559;19;20482;-75
2023/08/14 12:20:53;;;;;;;4.70;2.80;;;28.70;1.00;;;;;;7369356;19;20566;-75
2023/08/14 12:23:25;;;;;;;4.45;3.50;;;28.70;1.00;;;;;;7368478;19;20010;-76
2023/08/14 12:25:56;;;;;;;4.35;2.83;;;28.50;1.00;;;;;;7371639;19;20011;-76
2023/08/14 12:28:27;;;;;;;4.13;3.28;;;28.50;1.00;;;;;;7371762;19;20016;-76
2023/08/14 12:30:57;;;;;;;5.57;3.13;;;28.40;1.00;;;;;;7373558;19;20475;-76
2023/08/14 12:33:30;;;;;;;4.15;2.80;;;28.30;1.00;;;;;;7369978;19;20010;-75
2023/08/14 12:36:00;;;;;;;7.80;3.53;;;28.30;1.00;;;;;;7370729;19;20106;-76
2023/08/14 12:38:30;;;;;;;10.40;3.40;;;27.70;1.00;;;;;;7370539;19;20006;-75
2023/08/14 12:41:00;;;;;;;6.07;3.28;;;26.60;1.00;;;;;;7369709;19;20035;-76
2023/08/14 12:43:30;;;;;;;9.00;3.95;;;25.70;1.00;;;;;;7371100;19;20007;-74
2023/08/14 12:46:10;;;;;;;5.47;3.00;;;22.40;1.00;;;;;;7370560;19;20081;-69
2023/08/14 12:48:42;;;;;;;8.82;3.97;;;23.10;1.00;;;;;;7368138;19;20400;-68
2023/08/14 12:51:12;;;;;;;5.75;3.80;;;22.20;1.00;;;;;;7373399;19;20014;-68
2023/08/14 12:53:42;;;;;;;7.35;3.30;;;22.40;1.00;;;;;;7371190;19;20042;-69
2023/08/14 12:56:12;;;;;;;8.95;3.88;;;23.10;1.00;;;;;;7369612;19;20027;-69
2023/08/14 12:58:47;;;;;;;9.32;5.03;;;22.90;1.00;;;;;;7365648;19;20030;-69
2023/08/14 13:01:18;;;;;;;9.07;6.07;;;22.70;1.00;;;;;;7368109;19;20010;-68
2023/08/14 13:03:55;;;;;;;6.32;5.20;;;23.20;1.00;;;;;;7369261;19;20003;-69
2023/08/14 13:06:30;;;;;;;7.68;4.57;;;23.70;1.00;;;;;;7366712;19;20010;-68
2023/08/14 13:09:01;;;;;;;8.82;4.93;;;23.90;1.00;;;;;;7373796;19;20021;-70
2023/08/14 13:11:31;;;;;;;5.82;4.57;;;24.50;1.00;;;;;;7378619;19;20015;-69